Terminal Aerodrome Forecast
Issued by NWS

Home | Current Version | Previous Version | Text Only | Print | Product List | Glossary On
Versions: 1 2 3 4 5 6 7 8 9 10 11 12 13 14 15 16 17 18 19 20 21 22 23 24 25 26 27 28
000
FTUS41 KGYX 300105 AAA
TAFRKD
TAF AMD
KRKD 300105Z 3001/3024 10007KT 4SM BR OVC003
     FM300400 VRB03KT 1 1/2SM -DZ BR OVC002
     FM301300 15007KT 5SM SHRA BR OVC007 WS015/23025KT
     FM301800 21007KT P6SM BKN035 OVC050
      AMD LTD TO CLD VIS AND WIND=

USA.gov is the U.S. government's official web portal to all federal, state and local government web resources and services.